Time;durP1;ratioP1;P1;durP2;ratioP2;P2;SDS_P1;SDS_P2;PMS_P1;PMS_P2;Temp;Humidity;BMP_temperature;BMP_pressure;BME280_temperature;BME280_humidity;BME280_pressure;Samples;Min_cycle;Max_cycle;Signal;HPM_P1;HPM_P2
2023/08/13 00:00:06;;;;;;;13.40;3.20;;;;;;;;;;5072518;28;20056;-84
2023/08/13 00:02:33;;;;;;;11.77;2.92;;;;;;;;;;5072832;28;20082;-84
2023/08/13 00:05:03;;;;;;;10.88;2.95;;;;;;;;;;5074230;28;20052;-84
2023/08/13 00:07:30;;;;;;;14.50;2.78;;;;;;;;;;5073540;28;20051;-84
2023/08/13 00:09:56;;;;;;;8.95;2.45;;;;;;;;;;5073287;28;20066;-84
2023/08/13 00:12:22;;;;;;;10.13;2.80;;;;;;;;;;5073629;28;20048;-83
2023/08/13 00:14:48;;;;;;;11.13;2.65;;;;;;;;;;5054163;28;20045;-83
2023/08/13 00:17:14;;;;;;;10.93;3.15;;;;;;;;;;5071136;28;20048;-84
2023/08/13 00:19:40;;;;;;;12.52;2.78;;;;;;;;;;5072902;28;20040;-83
2023/08/13 00:22:06;;;;;;;12.13;3.58;;;;;;;;;;5073544;28;20103;-83
2023/08/13 00:24:32;;;;;;;14.15;3.75;;;;;;;;;;5070400;28;20041;-83
2023/08/13 00:27:01;;;;;;;12.43;3.17;;;;;;;;;;5046203;28;20039;-83
2023/08/13 00:29:28;;;;;;;12.65;3.30;;;;;;;;;;5070463;28;20048;-84
2023/08/13 00:31:55;;;;;;;11.27;2.90;;;;;;;;;;5069832;28;20069;-83
2023/08/13 00:34:21;;;;;;;8.98;2.55;;;;;;;;;;5067739;28;20049;-83
2023/08/13 00:36:47;;;;;;;10.73;2.55;;;;;;;;;;5052825;28;20041;-83
2023/08/13 00:39:13;;;;;;;9.85;2.70;;;;;;;;;;5054057;28;20043;-83
2023/08/13 00:41:40;;;;;;;9.48;2.95;;;;;;;;;;5053223;28;20072;-82
2023/08/13 00:44:06;;;;;;;12.02;2.75;;;;;;;;;;5071865;28;20045;-83
2023/08/13 00:46:32;;;;;;;10.52;2.67;;;;;;;;;;5070484;28;20044;-82
2023/08/13 00:48:59;;;;;;;15.02;3.33;;;;;;;;;;5069949;28;20040;-84
2023/08/13 00:51:28;;;;;;;12.57;2.92;;;;;;;;;;5071938;28;20043;-82
2023/08/13 00:53:57;;;;;;;10.55;3.03;;;;;;;;;;5070950;28;20056;-84
2023/08/13 00:56:23;;;;;;;11.23;2.85;;;;;;;;;;5071566;28;20045;-84
2023/08/13 00:58:50;;;;;;;15.27;3.60;;;;;;;;;;5070581;28;20049;-82
2023/08/13 01:01:16;;;;;;;11.70;3.50;;;;;;;;;;5070827;28;20411;-83
2023/08/13 01:03:42;;;;;;;11.50;2.72;;;;;;;;;;5047974;28;20045;-84
2023/08/13 01:06:26;;;;;;;13.77;2.97;;;;;;;;;;5070820;28;20041;-83
2023/08/13 01:09:01;;;;;;;10.43;3.25;;;;;;;;;;5069593;28;20041;-84
2023/08/13 01:11:27;;;;;;;12.93;3.00;;;;;;;;;;5067110;28;20045;-84
2023/08/13 01:14:04;;;;;;;17.83;3.70;;;;;;;;;;5044154;28;20044;-83
2023/08/13 01:16:31;;;;;;;13.40;3.63;;;;;;;;;;5030779;28;20105;-85
2023/08/13 01:18:57;;;;;;;16.13;3.55;;;;;;;;;;5071119;28;20041;-84
2023/08/13 01:21:23;;;;;;;14.80;3.20;;;;;;;;;;5071223;28;20074;-83
2023/08/13 01:23:49;;;;;;;13.48;2.95;;;;;;;;;;5072351;28;20041;-83
2023/08/13 01:26:18;;;;;;;11.55;2.97;;;;;;;;;;5053809;28;20055;-83
2023/08/13 01:28:46;;;;;;;16.00;3.50;;;;;;;;;;5050350;28;20037;-83
2023/08/13 01:31:19;;;;;;;13.60;3.30;;;;;;;;;;5070102;28;20044;-83
2023/08/13 01:33:46;;;;;;;12.85;2.75;;;;;;;;;;5061418;28;20050;-84
2023/08/13 01:36:16;;;;;;;15.70;3.20;;;;;;;;;;5054129;28;20111;-83
2023/08/13 01:38:42;;;;;;;11.27;2.88;;;;;;;;;;5071888;28;20458;-83
2023/08/13 01:41:09;;;;;;;11.70;3.05;;;;;;;;;;5072421;28;20048;-83
2023/08/13 01:43:35;;;;;;;12.20;3.65;;;;;;;;;;5069911;28;20037;-83
2023/08/13 01:46:01;;;;;;;16.25;3.25;;;;;;;;;;5062403;28;20071;-83
2023/08/13 01:48:28;;;;;;;13.70;3.10;;;;;;;;;;5071225;28;20060;-83
2023/08/13 01:50:54;;;;;;;14.15;3.97;;;;;;;;;;5071610;28;20052;-83
2023/08/13 01:53:20;;;;;;;14.65;3.33;;;;;;;;;;5072174;28;20086;-84
2023/08/13 01:55:46;;;;;;;14.52;3.45;;;;;;;;;;5072826;28;20083;-83
2023/08/13 01:58:12;;;;;;;14.55;3.70;;;;;;;;;;5071806;28;20041;-83
2023/08/13 02:00:39;;;;;;;14.25;3.28;;;;;;;;;;5069661;28;20076;-83
2023/08/13 02:03:05;;;;;;;18.17;3.90;;;;;;;;;;5064127;28;20064;-83
2023/08/13 02:05:31;;;;;;;13.88;3.53;;;;;;;;;;5050264;28;20099;-84
2023/08/13 02:07:57;;;;;;;15.00;3.28;;;;;;;;;;5054827;28;20040;-83
2023/08/13 02:10:23;;;;;;;17.45;3.92;;;;;;;;;;5071367;28;20044;-83
2023/08/13 02:12:49;;;;;;;16.98;3.85;;;;;;;;;;5064301;28;20101;-83
2023/08/13 02:15:15;;;;;;;16.08;3.42;;;;;;;;;;5054254;28;20047;-83
2023/08/13 02:17:41;;;;;;;14.35;3.40;;;;;;;;;;5056629;28;20050;-84
2023/08/13 02:20:09;;;;;;;17.25;4.13;;;;;;;;;;5064393;28;20455;-84
2023/08/13 02:22:35;;;;;;;15.27;3.80;;;;;;;;;;5053185;28;20058;-84
2023/08/13 02:25:02;;;;;;;15.35;3.83;;;;;;;;;;5069606;28;20040;-84
2023/08/13 02:27:28;;;;;;;12.27;3.53;;;;;;;;;;5067909;28;20102;-85
2023/08/13 02:29:54;;;;;;;15.88;3.70;;;;;;;;;;5068358;28;20067;-85
2023/08/13 02:32:20;;;;;;;12.43;3.17;;;;;;;;;;5051164;28;20044;-84
2023/08/13 02:34:47;;;;;;;15.68;3.53;;;;;;;;;;5066502;28;20076;-84
2023/08/13 02:37:13;;;;;;;14.10;3.78;;;;;;;;;;5051953;28;20116;-84
2023/08/13 02:39:40;;;;;;;14.93;4.55;;;;;;;;;;5071063;28;20497;-84
2023/08/13 02:42:06;;;;;;;18.05;3.80;;;;;;;;;;5069398;28;20068;-84
2023/08/13 02:44:32;;;;;;;15.40;3.70;;;;;;;;;;5065639;28;20041;-84
2023/08/13 02:46:58;;;;;;;15.85;3.72;;;;;;;;;;5051512;28;20049;-84
2023/08/13 02:49:24;;;;;;;11.27;3.28;;;;;;;;;;5070715;28;20064;-83
2023/08/13 02:51:50;;;;;;;15.00;3.55;;;;;;;;;;5071289;28;20041;-83
2023/08/13 02:54:16;;;;;;;15.63;3.72;;;;;;;;;;5054266;28;20053;-83
2023/08/13 02:56:43;;;;;;;18.27;3.80;;;;;;;;;;5069840;28;20064;-83
2023/08/13 02:59:09;;;;;;;14.30;3.90;;;;;;;;;;5071375;28;20041;-84
2023/08/13 03:01:35;;;;;;;17.60;3.88;;;;;;;;;;5033042;28;20058;-84
2023/08/13 03:04:03;;;;;;;13.90;3.67;;;;;;;;;;5030072;28;20049;-84
2023/08/13 03:06:29;;;;;;;15.07;4.03;;;;;;;;;;5023541;28;20073;-84
2023/08/13 03:08:55;;;;;;;16.00;4.13;;;;;;;;;;5030591;28;20499;-84
2023/08/13 03:11:22;;;;;;;11.63;3.50;;;;;;;;;;5019681;28;20122;-84
2023/08/13 03:13:48;;;;;;;13.82;3.70;;;;;;;;;;5012650;28;20148;-83
2023/08/13 03:16:14;;;;;;;17.25;4.25;;;;;;;;;;5027132;28;20511;-84
2023/08/13 03:18:41;;;;;;;15.85;4.78;;;;;;;;;;5014231;28;20070;-83
2023/08/13 03:21:07;;;;;;;16.00;4.53;;;;;;;;;;5024079;28;20038;-84
2023/08/13 03:23:33;;;;;;;16.30;3.95;;;;;;;;;;5029921;28;20124;-83
2023/08/13 03:26:00;;;;;;;15.98;4.20;;;;;;;;;;5029648;28;20038;-84
2023/08/13 03:28:26;;;;;;;17.33;4.57;;;;;;;;;;5030068;28;20045;-84
2023/08/13 03:31:01;;;;;;;14.90;3.60;;;;;;;;;;5030363;28;20456;-84
2023/08/13 03:33:27;;;;;;;14.00;3.92;;;;;;;;;;5029947;28;20049;-84
2023/08/13 03:35:53;;;;;;;15.00;4.45;;;;;;;;;;5030546;28;20100;-84
2023/08/13 03:38:19;;;;;;;14.65;4.07;;;;;;;;;;5012238;28;20038;-83
2023/08/13 03:40:45;;;;;;;16.65;4.60;;;;;;;;;;5027576;28;20065;-84
2023/08/13 03:43:11;;;;;;;14.23;4.65;;;;;;;;;;5031428;28;20187;-84
2023/08/13 03:45:37;;;;;;;14.73;4.13;;;;;;;;;;5029115;28;20042;-85
2023/08/13 03:48:04;;;;;;;15.50;4.35;;;;;;;;;;5031644;28;20022;-84
2023/08/13 03:50:30;;;;;;;15.80;4.40;;;;;;;;;;5031518;28;20419;-84
2023/08/13 03:52:56;;;;;;;18.60;4.60;;;;;;;;;;5031118;28;20048;-84
2023/08/13 03:55:22;;;;;;;15.70;4.45;;;;;;;;;;5032458;28;20052;-83
2023/08/13 03:57:52;;;;;;;14.15;3.85;;;;;;;;;;5010742;28;20065;-83
2023/08/13 04:00:18;;;;;;;16.55;4.10;;;;;;;;;;5032816;28;20056;-83
2023/08/13 04:02:48;;;;;;;14.35;4.35;;;;;;;;;;5048010;28;20076;-84
2023/08/13 04:05:14;;;;;;;14.88;4.35;;;;;;;;;;5047472;28;20183;-84
2023/08/13 04:07:41;;;;;;;15.23;4.45;;;;;;;;;;5048378;28;20038;-84
2023/08/13 04:10:07;;;;;;;16.50;4.70;;;;;;;;;;5047480;28;20037;-84
2023/08/13 04:12:33;;;;;;;16.83;5.03;;;;;;;;;;5052882;28;20096;-83
2023/08/13 04:14:59;;;;;;;14.85;4.10;;;;;;;;;;5051573;28;20050;-84
2023/08/13 04:17:26;;;;;;;16.75;4.50;;;;;;;;;;5049696;28;20044;-83
2023/08/13 04:19:52;;;;;;;11.77;4.18;;;;;;;;;;5051854;28;20045;-84
2023/08/13 04:22:18;;;;;;;15.25;3.95;;;;;;;;;;5050697;28;20042;-83
2023/08/13 04:24:50;;;;;;;15.60;4.30;;;;;;;;;;5051741;28;20038;-84
2023/08/13 04:27:16;;;;;;;12.13;3.60;;;;;;;;;;5043072;28;20050;-83
2023/08/13 04:29:42;;;;;;;18.15;3.70;;;;;;;;;;5049241;28;20044;-84
2023/08/13 04:32:08;;;;;;;19.65;4.15;;;;;;;;;;5047559;28;20049;-85
2023/08/13 04:34:34;;;;;;;15.65;3.92;;;;;;;;;;5048101;28;20069;-84
2023/08/13 04:37:00;;;;;;;14.05;3.35;;;;;;;;;;5046406;28;20106;-84
2023/08/13 04:39:26;;;;;;;13.75;4.18;;;;;;;;;;5052367;28;20086;-84
2023/08/13 04:41:53;;;;;;;15.82;4.03;;;;;;;;;;5052123;28;20056;-84
2023/08/13 04:44:19;;;;;;;15.32;4.20;;;;;;;;;;5051244;28;20051;-83
2023/08/13 04:46:45;;;;;;;14.05;3.78;;;;;;;;;;5050972;28;20041;-84
2023/08/13 04:49:11;;;;;;;15.93;4.20;;;;;;;;;;5045565;28;20041;-84
2023/08/13 04:51:41;;;;;;;12.85;3.30;;;;;;;;;;5050595;28;20106;-84
2023/08/13 04:54:07;;;;;;;17.02;4.30;;;;;;;;;;5048526;28;20033;-84
2023/08/13 04:56:33;;;;;;;17.55;4.13;;;;;;;;;;5050064;28;20054;-84
2023/08/13 04:58:59;;;;;;;15.68;4.03;;;;;;;;;;5033111;28;20092;-83
2023/08/13 05:01:25;;;;;;;12.52;3.53;;;;;;;;;;5049164;28;20518;-83
2023/08/13 05:03:52;;;;;;;15.07;4.35;;;;;;;;;;5050932;28;20140;-83
2023/08/13 05:06:18;;;;;;;14.05;4.00;;;;;;;;;;5049789;28;20045;-83
2023/08/13 05:08:44;;;;;;;17.70;4.93;;;;;;;;;;5048407;28;20576;-83
2023/08/13 05:11:10;;;;;;;17.02;4.20;;;;;;;;;;5048161;28;20461;-83
2023/08/13 05:13:36;;;;;;;17.60;4.30;;;;;;;;;;5048807;28;20129;-83
2023/08/13 05:16:05;;;;;;;14.90;3.45;;;;;;;;;;5049172;28;20038;-82
2023/08/13 05:18:31;;;;;;;14.35;4.15;;;;;;;;;;5044793;28;20042;-84
2023/08/13 05:20:57;;;;;;;11.57;3.72;;;;;;;;;;5047149;28;20045;-84
2023/08/13 05:23:23;;;;;;;13.68;4.05;;;;;;;;;;5041053;28;20034;-83
2023/08/13 05:25:50;;;;;;;15.20;4.18;;;;;;;;;;5042433;28;20045;-84
2023/08/13 05:28:16;;;;;;;15.45;4.28;;;;;;;;;;5046580;28;20045;-84
2023/08/13 05:30:42;;;;;;;16.27;3.92;;;;;;;;;;5048681;28;20045;-84
2023/08/13 05:33:08;;;;;;;13.55;3.95;;;;;;;;;;5044600;28;20110;-84
2023/08/13 05:35:34;;;;;;;13.98;3.95;;;;;;;;;;5048309;28;20053;-84
2023/08/13 05:38:00;;;;;;;15.40;4.15;;;;;;;;;;5039362;28;20046;-84
2023/08/13 05:40:26;;;;;;;13.80;3.58;;;;;;;;;;5047911;28;20044;-84
2023/08/13 05:42:52;;;;;;;11.68;3.55;;;;;;;;;;5047723;28;20108;-84
2023/08/13 05:45:18;;;;;;;15.10;3.70;;;;;;;;;;5048059;28;20049;-84
2023/08/13 05:47:44;;;;;;;14.43;3.55;;;;;;;;;;5033080;28;20049;-84
2023/08/13 05:50:10;;;;;;;10.40;3.40;;;;;;;;;;5047888;28;20046;-84
2023/08/13 05:52:36;;;;;;;13.60;3.53;;;;;;;;;;5048934;28;20041;-85
2023/08/13 05:55:03;;;;;;;12.00;3.40;;;;;;;;;;5064313;28;20124;-84
2023/08/13 05:57:29;;;;;;;10.85;3.10;;;;;;;;;;5047631;28;20053;-84
2023/08/13 05:59:55;;;;;;;13.73;3.85;;;;;;;;;;5048686;28;20037;-84
2023/08/13 06:02:21;;;;;;;12.15;3.47;;;;;;;;;;5043248;28;20064;-85
2023/08/13 06:04:47;;;;;;;11.20;3.13;;;;;;;;;;5036611;28;20048;-86
2023/08/13 06:07:13;;;;;;;12.60;3.20;;;;;;;;;;5044242;28;20046;-85
2023/08/13 06:09:39;;;;;;;11.43;3.58;;;;;;;;;;5044986;28;20060;-85
2023/08/13 06:12:06;;;;;;;11.77;3.80;;;;;;;;;;5043511;28;20484;-85
2023/08/13 06:14:32;;;;;;;11.73;2.97;;;;;;;;;;5043576;28;20065;-84
2023/08/13 06:17:01;;;;;;;10.30;2.72;;;;;;;;;;5042407;28;20056;-83
2023/08/13 06:19:27;;;;;;;12.05;3.38;;;;;;;;;;5044932;28;20113;-84
2023/08/13 06:21:53;;;;;;;9.75;2.90;;;;;;;;;;5042721;28;20052;-84
2023/08/13 06:24:19;;;;;;;11.80;3.08;;;;;;;;;;5038491;28;20053;-85
2023/08/13 06:26:45;;;;;;;12.32;3.10;;;;;;;;;;5038160;28;20094;-84
2023/08/13 06:29:11;;;;;;;11.40;3.20;;;;;;;;;;5035324;28;20045;-84
2023/08/13 06:31:37;;;;;;;9.82;2.80;;;;;;;;;;5037741;28;20060;-84
2023/08/13 06:34:04;;;;;;;13.63;3.22;;;;;;;;;;5040318;28;20057;-85
2023/08/13 06:36:30;;;;;;;12.57;3.15;;;;;;;;;;5035449;28;20057;-84
2023/08/13 06:38:56;;;;;;;10.80;3.28;;;;;;;;;;5043674;28;20159;-84
2023/08/13 06:41:22;;;;;;;13.80;3.35;;;;;;;;;;5042353;28;20132;-86
2023/08/13 06:43:51;;;;;;;12.82;2.97;;;;;;;;;;5034525;28;20049;-85
2023/08/13 06:46:17;;;;;;;9.70;2.55;;;;;;;;;;5042886;28;20165;-85
2023/08/13 06:48:43;;;;;;;10.40;2.55;;;;;;;;;;5021166;28;20049;-85
2023/08/13 06:51:11;;;;;;;12.38;3.13;;;;;;;;;;5038768;28;21878;-86
2023/08/13 06:53:38;;;;;;;13.48;3.17;;;;;;;;;;5039578;28;20041;-85
2023/08/13 06:56:04;;;;;;;12.90;3.35;;;;;;;;;;5042364;28;20049;-84
2023/08/13 06:58:30;;;;;;;10.23;2.72;;;;;;;;;;5042663;28;20057;-85
2023/08/13 07:00:56;;;;;;;12.65;3.60;;;;;;;;;;5035141;28;20078;-85
2023/08/13 07:03:22;;;;;;;10.80;3.30;;;;;;;;;;5036545;28;20486;-84
2023/08/13 07:05:48;;;;;;;12.95;2.85;;;;;;;;;;5041628;28;20511;-85
2023/08/13 07:08:14;;;;;;;12.85;3.22;;;;;;;;;;5042068;28;20041;-85
2023/08/13 07:10:40;;;;;;;12.00;3.58;;;;;;;;;;5044210;28;20053;-85
2023/08/13 07:13:07;;;;;;;12.18;3.42;;;;;;;;;;5046061;28;20041;-83
2023/08/13 07:15:33;;;;;;;12.52;3.10;;;;;;;;;;5045165;28;20102;-83
2023/08/13 07:17:59;;;;;;;11.60;3.22;;;;;;;;;;5044079;28;20041;-84
2023/08/13 07:20:25;;;;;;;11.48;3.05;;;;;;;;;;5045787;28;20053;-84
2023/08/13 07:22:52;;;;;;;10.23;2.95;;;;;;;;;;5045597;28;20049;-84
2023/08/13 07:25:19;;;;;;;13.43;3.60;;;;;;;;;;5045374;28;20061;-84
2023/08/13 07:27:45;;;;;;;11.55;3.38;;;;;;;;;;5044625;28;20041;-86
2023/08/13 07:30:12;;;;;;;10.95;3.22;;;;;;;;;;5042391;28;20053;-85
2023/08/13 07:32:40;;;;;;;11.77;3.30;;;;;;;;;;5043179;28;20618;-85
2023/08/13 07:35:06;;;;;;;11.90;2.90;;;;;;;;;;5040445;28;20075;-84
2023/08/13 07:37:36;;;;;;;15.23;3.15;;;;;;;;;;5057717;28;20042;-84
2023/08/13 07:40:07;;;;;;;11.43;3.17;;;;;;;;;;5041434;28;20049;-84
2023/08/13 07:42:33;;;;;;;13.02;2.85;;;;;;;;;;5041164;28;20046;-83
2023/08/13 07:44:59;;;;;;;10.07;3.00;;;;;;;;;;5041494;28;20107;-85
2023/08/13 07:47:25;;;;;;;9.82;2.78;;;;;;;;;;5043223;28;20042;-84
2023/08/13 07:49:52;;;;;;;12.27;3.15;;;;;;;;;;5039820;28;20420;-84
2023/08/13 07:52:18;;;;;;;11.50;2.88;;;;;;;;;;5045384;28;20049;-84
2023/08/13 07:54:44;;;;;;;13.05;3.42;;;;;;;;;;5047517;28;20041;-85
2023/08/13 07:57:10;;;;;;;10.35;3.08;;;;;;;;;;5044939;28;20045;-84
2023/08/13 07:59:36;;;;;;;11.52;3.38;;;;;;;;;;5029455;28;20050;-85
2023/08/13 08:02:03;;;;;;;8.18;2.80;;;;;;;;;;5047972;28;20452;-84
2023/08/13 08:04:29;;;;;;;11.32;3.22;;;;;;;;;;5047646;28;20099;-83
2023/08/13 08:06:55;;;;;;;12.98;2.90;;;;;;;;;;5048385;28;20107;-83
2023/08/13 08:09:21;;;;;;;12.38;2.92;;;;;;;;;;5048385;28;20045;-84
2023/08/13 08:11:48;;;;;;;13.40;3.20;;;;;;;;;;5048691;28;20045;-84
2023/08/13 08:14:17;;;;;;;10.70;2.58;;;;;;;;;;5048914;28;20044;-83
2023/08/13 08:16:43;;;;;;;13.32;3.08;;;;;;;;;;5047972;28;20112;-84
2023/08/13 08:19:09;;;;;;;7.35;2.08;;;;;;;;;;5031076;28;20112;-84
2023/08/13 08:21:37;;;;;;;11.27;2.35;;;;;;;;;;5046289;28;20057;-84
2023/08/13 08:24:03;;;;;;;9.27;2.45;;;;;;;;;;5048027;28;20056;-84
2023/08/13 08:26:29;;;;;;;9.95;2.17;;;;;;;;;;5048093;28;20065;-85
2023/08/13 08:28:55;;;;;;;9.50;2.53;;;;;;;;;;5047878;28;20516;-84
2023/08/13 08:31:21;;;;;;;11.27;2.58;;;;;;;;;;5051675;28;20096;-83
2023/08/13 08:33:47;;;;;;;11.00;2.45;;;;;;;;;;5050262;28;20120;-84
2023/08/13 08:36:13;;;;;;;9.60;2.25;;;;;;;;;;5050271;28;20049;-85
2023/08/13 08:38:39;;;;;;;10.70;2.50;;;;;;;;;;5048723;28;20041;-83
2023/08/13 08:41:05;;;;;;;8.98;2.55;;;;;;;;;;5052263;28;20128;-83
2023/08/13 08:43:31;;;;;;;8.57;2.25;;;;;;;;;;5039191;28;20085;-84
2023/08/13 08:46:01;;;;;;;10.30;2.05;;;;;;;;;;5032971;28;20046;-82
2023/08/13 08:48:28;;;;;;;8.60;2.20;;;;;;;;;;5048259;28;20045;-83
2023/08/13 08:50:54;;;;;;;9.55;2.33;;;;;;;;;;5052029;28;20049;-83
2023/08/13 08:53:21;;;;;;;10.95;2.10;;;;;;;;;;5050867;28;20041;-84
2023/08/13 08:55:48;;;;;;;10.18;2.25;;;;;;;;;;5049967;28;20060;-83
2023/08/13 08:58:15;;;;;;;9.02;2.20;;;;;;;;;;5051601;28;20041;-83
2023/08/13 09:00:41;;;;;;;11.32;2.30;;;;;;;;;;5052408;28;20065;-82
2023/08/13 09:03:07;;;;;;;8.57;2.08;;;;;;;;;;5051344;28;20045;-83
2023/08/13 09:05:33;;;;;;;12.32;2.67;;;;;;;;;;5051591;28;20102;-83
2023/08/13 09:07:59;;;;;;;9.70;2.58;;;;;;;;;;5048982;28;20122;-83
2023/08/13 09:10:25;;;;;;;9.85;2.20;;;;;;;;;;5044265;28;20528;-82
2023/08/13 09:12:52;;;;;;;8.70;2.40;;;;;;;;;;5047915;28;20064;-83
2023/08/13 09:15:18;;;;;;;8.65;2.20;;;;;;;;;;5040088;28;20744;-84
2023/08/13 09:17:44;;;;;;;9.98;1.95;;;;;;;;;;5046437;28;20037;-83
2023/08/13 09:20:18;;;;;;;9.32;2.10;;;;;;;;;;5042170;28;20069;-84
2023/08/13 09:22:50;;;;;;;10.48;2.38;;;;;;;;;;5048228;28;20042;-83
2023/08/13 09:25:17;;;;;;;9.93;2.70;;;;;;;;;;5045292;28;20055;-82
2023/08/13 09:27:43;;;;;;;11.25;2.20;;;;;;;;;;5051927;28;20056;-82
2023/08/13 09:30:11;;;;;;;9.00;2.10;;;;;;;;;;5052636;28;20053;-83
2023/08/13 09:32:40;;;;;;;10.80;2.70;;;;;;;;;;5053318;28;20037;-81
2023/08/13 09:35:06;;;;;;;10.30;2.35;;;;;;;;;;5053135;28;20113;-82
2023/08/13 09:37:32;;;;;;;8.40;1.90;;;;;;;;;;5053496;28;20053;-82
2023/08/13 09:39:58;;;;;;;10.38;2.22;;;;;;;;;;5053907;28;20056;-83
2023/08/13 09:42:24;;;;;;;10.27;2.28;;;;;;;;;;5053958;28;20115;-82
2023/08/13 09:44:56;;;;;;;9.77;2.33;;;;;;;;;;5045371;28;20042;-83
2023/08/13 09:47:25;;;;;;;10.40;1.65;;;;;;;;;;5031108;28;20046;-83
2023/08/13 09:49:51;;;;;;;7.18;1.75;;;;;;;;;;5038078;28;20073;-82
2023/08/13 09:52:23;;;;;;;8.93;1.80;;;;;;;;;;5040808;28;20061;-83
2023/08/13 09:55:03;;;;;;;8.18;1.85;;;;;;;;;;5053513;28;20041;-82
2023/08/13 09:57:31;;;;;;;7.38;1.63;;;;;;;;;;5053245;28;20045;-82
2023/08/13 10:00:02;;;;;;;8.57;1.60;;;;;;;;;;5052343;28;20096;-82
2023/08/13 10:02:29;;;;;;;8.65;1.73;;;;;;;;;;5035511;28;20056;-82
2023/08/13 10:04:55;;;;;;;8.77;2.05;;;;;;;;;;5053120;28;20046;-82
2023/08/13 10:07:22;;;;;;;8.23;1.90;;;;;;;;;;5047689;28;20048;-81
2023/08/13 10:09:48;;;;;;;10.50;2.30;;;;;;;;;;5035394;28;20110;-84
2023/08/13 10:12:14;;;;;;;8.38;1.80;;;;;;;;;;5046995;28;20125;-82
2023/08/13 10:14:40;;;;;;;7.78;1.52;;;;;;;;;;5036942;28;20042;-82
2023/08/13 10:17:07;;;;;;;7.70;1.80;;;;;;;;;;5050326;28;20045;-82
2023/08/13 10:19:37;;;;;;;7.50;1.63;;;;;;;;;;5046381;28;20052;-82
2023/08/13 10:22:03;;;;;;;5.60;0.93;;;;;;;;;;5053572;28;20080;-83
2023/08/13 10:24:30;;;;;;;6.25;1.27;;;;;;;;;;5036501;28;20068;-82
2023/08/13 10:26:59;;;;;;;6.22;1.30;;;;;;;;;;5051525;28;20056;-82
2023/08/13 10:29:34;;;;;;;6.82;1.40;;;;;;;;;;5051901;28;20046;-83
2023/08/13 10:32:01;;;;;;;11.95;2.00;;;;;;;;;;5051762;28;20406;-82
2023/08/13 10:34:50;;;;;;;6.45;1.45;;;;;;;;;;5033850;28;20052;-82
2023/08/13 10:37:31;;;;;;;6.40;1.35;;;;;;;;;;5051659;28;20037;-81
2023/08/13 10:39:57;;;;;;;5.53;1.52;;;;;;;;;;5052409;28;20048;-83
2023/08/13 10:42:26;;;;;;;7.63;1.30;;;;;;;;;;5050636;28;20064;-83
2023/08/13 10:45:09;;;;;;;7.55;1.65;;;;;;;;;;5051480;28;20063;-83
2023/08/13 10:47:47;;;;;;;6.43;1.50;;;;;;;;;;5049166;28;20052;-82
2023/08/13 10:50:20;;;;;;;6.07;1.23;;;;;;;;;;5053190;28;20045;-83
2023/08/13 10:52:55;;;;;;;6.03;1.35;;;;;;;;;;5050812;28;20041;-83
2023/08/13 10:55:25;;;;;;;6.30;1.35;;;;;;;;;;5052414;28;20033;-86
2023/08/13 10:57:52;;;;;;;5.40;1.15;;;;;;;;;;5050978;28;20048;-83
2023/08/13 11:00:19;;;;;;;6.93;1.08;;;;;;;;;;5052684;28;20069;-84
2023/08/13 11:02:45;;;;;;;4.40;1.10;;;;;;;;;;5051773;28;20077;-84
2023/08/13 11:05:12;;;;;;;5.35;1.30;;;;;;;;;;5051219;28;20045;-82
2023/08/13 11:07:38;;;;;;;6.85;1.60;;;;;;;;;;5031251;28;20046;-84
2023/08/13 11:10:05;;;;;;;6.15;1.50;;;;;;;;;;5046872;28;20046;-85
2023/08/13 11:12:31;;;;;;;6.70;1.23;;;;;;;;;;5049231;28;20052;-83
2023/08/13 11:15:00;;;;;;;4.55;1.17;;;;;;;;;;5048390;28;20045;-82
2023/08/13 11:17:26;;;;;;;5.70;1.38;;;;;;;;;;5049347;28;20037;-84
2023/08/13 11:19:56;;;;;;;8.20;1.60;;;;;;;;;;5039951;28;20064;-84
2023/08/13 11:22:24;;;;;;;6.25;1.42;;;;;;;;;;5038829;28;20110;-84
2023/08/13 11:24:50;;;;;;;5.13;1.13;;;;;;;;;;5047072;28;20388;-84
2023/08/13 11:27:16;;;;;;;5.03;1.30;;;;;;;;;;5055654;28;20098;-84
2023/08/13 11:29:42;;;;;;;5.55;1.30;;;;;;;;;;5053556;28;20038;-85
2023/08/13 11:32:08;;;;;;;5.43;1.20;;;;;;;;;;5041917;28;20049;-84
2023/08/13 11:34:34;;;;;;;7.20;1.35;;;;;;;;;;5046082;28;20033;-84
2023/08/13 11:37:01;;;;;;;6.28;1.33;;;;;;;;;;5052358;28;20348;-85
2023/08/13 11:39:27;;;;;;;5.50;1.20;;;;;;;;;;5055121;28;20098;-85
2023/08/13 11:41:53;;;;;;;7.28;1.20;;;;;;;;;;5053666;28;20338;-84
2023/08/13 11:44:20;;;;;;;6.15;1.33;;;;;;;;;;5054570;28;20562;-84
2023/08/13 11:47:00;;;;;;;5.38;1.20;;;;;;;;;;5054169;28;20064;-82
2023/08/13 11:49:27;;;;;;;5.30;1.30;;;;;;;;;;5057464;28;20045;-83
2023/08/13 11:51:55;;;;;;;4.50;1.17;;;;;;;;;;5056980;28;20041;-83
2023/08/13 11:54:22;;;;;;;6.50;1.33;;;;;;;;;;5056279;28;20037;-83
2023/08/13 11:56:51;;;;;;;7.70;1.30;;;;;;;;;;5040414;28;20045;-85
2023/08/13 11:59:29;;;;;;;5.72;1.15;;;;;;;;;;5059236;28;20045;-84
2023/08/13 12:01:56;;;;;;;5.47;1.20;;;;;;;;;;5058991;28;20100;-83
2023/08/13 12:04:23;;;;;;;9.65;1.48;;;;;;;;;;5059663;28;20045;-83
2023/08/13 12:06:51;;;;;;;6.53;1.40;;;;;;;;;;5057517;28;20026;-83
2023/08/13 12:09:18;;;;;;;5.20;1.20;;;;;;;;;;5058711;28;20029;-84
2023/08/13 12:11:44;;;;;;;7.18;1.30;;;;;;;;;;5058526;28;20045;-83
2023/08/13 12:14:10;;;;;;;6.05;1.40;;;;;;;;;;5058966;28;20075;-83
2023/08/13 12:16:40;;;;;;;6.68;1.10;;;;;;;;;;5055302;28;20097;-83
2023/08/13 12:19:06;;;;;;;6.75;1.20;;;;;;;;;;5055954;28;20076;-84
2023/08/13 12:21:36;;;;;;;6.93;1.40;;;;;;;;;;5058251;28;20042;-83
2023/08/13 12:24:03;;;;;;;5.47;1.30;;;;;;;;;;5052639;28;20045;-84
2023/08/13 12:26:30;;;;;;;5.45;1.23;;;;;;;;;;5050931;28;20061;-82
2023/08/13 12:28:56;;;;;;;4.40;1.10;;;;;;;;;;5049567;28;20049;-82
2023/08/13 12:31:25;;;;;;;5.63;1.13;;;;;;;;;;5051897;28;20076;-83
2023/08/13 12:33:51;;;;;;;6.65;1.10;;;;;;;;;;5032051;28;20046;-84
2023/08/13 12:36:18;;;;;;;6.82;1.45;;;;;;;;;;5045884;28;20203;-83
2023/08/13 12:38:44;;;;;;;6.07;1.30;;;;;;;;;;5049204;28;20054;-84
2023/08/13 12:41:10;;;;;;;6.13;1.63;;;;;;;;;;5048524;28;20518;-83
2023/08/13 12:43:40;;;;;;;6.43;1.30;;;;;;;;;;5048647;28;20042;-84
2023/08/13 12:46:06;;;;;;;5.75;1.30;;;;;;;;;;5032903;28;20046;-84
2023/08/13 12:48:35;;;;;;;6.75;1.60;;;;;;;;;;5048482;28;20045;-84
2023/08/13 12:51:01;;;;;;;6.60;1.55;;;;;;;;;;5049764;28;20048;-85
2023/08/13 12:53:27;;;;;;;7.40;1.50;;;;;;;;;;5045016;28;20033;-82
2023/08/13 12:55:54;;;;;;;6.80;1.90;;;;;;;;;;5053972;28;20144;-83
2023/08/13 12:58:21;;;;;;;8.75;1.90;;;;;;;;;;5051856;28;20117;-83
2023/08/13 13:00:47;;;;;;;6.82;1.80;;;;;;;;;;5049998;28;20088;-83
2023/08/13 13:03:13;;;;;;;8.13;1.77;;;;;;;;;;5050698;28;20072;-83
2023/08/13 13:05:39;;;;;;;9.70;1.92;;;;;;;;;;5051488;28;20045;-84
2023/08/13 13:08:05;;;;;;;8.55;1.88;;;;;;;;;;5052797;28;20100;-84
2023/08/13 13:10:31;;;;;;;8.45;2.00;;;;;;;;;;5052562;28;20127;-84
2023/08/13 13:13:00;;;;;;;7.60;2.10;;;;;;;;;;5051886;28;20037;-83
2023/08/13 13:15:27;;;;;;;8.15;1.85;;;;;;;;;;5035955;28;20181;-84
2023/08/13 13:17:53;;;;;;;8.32;2.38;;;;;;;;;;5050092;28;20049;-83
2023/08/13 13:20:19;;;;;;;8.60;2.05;;;;;;;;;;5054499;28;20081;-83
2023/08/13 13:22:45;;;;;;;10.10;2.20;;;;;;;;;;5051742;28;20092;-83
2023/08/13 13:25:11;;;;;;;9.38;2.10;;;;;;;;;;5054808;28;20029;-82
2023/08/13 13:27:41;;;;;;;8.48;2.28;;;;;;;;;;5054634;28;20041;-82
2023/08/13 13:30:08;;;;;;;7.38;1.98;;;;;;;;;;5054356;28;20041;-82
2023/08/13 13:32:35;;;;;;;9.10;2.35;;;;;;;;;;5050551;28;20051;-83
2023/08/13 13:35:02;;;;;;;9.52;2.13;;;;;;;;;;5042518;28;20106;-82
2023/08/13 13:37:28;;;;;;;7.43;2.10;;;;;;;;;;5054867;28;20045;-83
2023/08/13 13:39:55;;;;;;;7.07;2.00;;;;;;;;;;5046660;28;20094;-83
2023/08/13 13:42:21;;;;;;;7.50;2.00;;;;;;;;;;5049056;28;20120;-85
2023/08/13 13:44:47;;;;;;;7.93;2.10;;;;;;;;;;5051992;28;20045;-83
2023/08/13 13:47:13;;;;;;;9.50;2.47;;;;;;;;;;5034498;28;20049;-83
2023/08/13 13:49:40;;;;;;;7.63;1.90;;;;;;;;;;5047794;28;20037;-85
2023/08/13 13:52:06;;;;;;;8.18;1.83;;;;;;;;;;5044484;28;20176;-84
2023/08/13 13:54:33;;;;;;;11.00;2.20;;;;;;;;;;5047410;28;20519;-83
2023/08/13 13:56:59;;;;;;;9.65;2.30;;;;;;;;;;5048525;28;20050;-84
2023/08/13 13:59:25;;;;;;;6.85;2.05;;;;;;;;;;5044739;28;20046;-83
2023/08/13 14:01:51;;;;;;;8.15;2.22;;;;;;;;;;5051378;28;20088;-84
2023/08/13 14:04:18;;;;;;;9.88;2.10;;;;;;;;;;5052836;28;20048;-84
2023/08/13 14:06:44;;;;;;;8.88;2.25;;;;;;;;;;5052246;28;20119;-82
2023/08/13 14:09:15;;;;;;;10.07;2.42;;;;;;;;;;5052524;28;20049;-82
2023/08/13 14:11:41;;;;;;;;;;;;;;;;;;5052925;28;20054;-84
2023/08/13 14:14:07;;;;;;;8.70;2.28;;;;;;;;;;5053317;28;19989;-83
2023/08/13 14:16:33;;;;;;;12.43;2.83;;;;;;;;;;5047055;28;20091;-84
2023/08/13 14:19:00;;;;;;;8.32;2.63;;;;;;;;;;5049303;28;20124;-83
2023/08/13 14:21:26;;;;;;;8.05;2.70;;;;;;;;;;5051789;28;20087;-84
2023/08/13 14:23:52;;;;;;;10.50;2.50;;;;;;;;;;5052705;28;20050;-85
2023/08/13 14:26:18;;;;;;;9.95;2.00;;;;;;;;;;5050643;28;20476;-84
2023/08/13 14:28:44;;;;;;;10.05;2.28;;;;;;;;;;5051562;28;20096;-82
2023/08/13 14:31:10;;;;;;;8.68;2.33;;;;;;;;;;5052846;28;20048;-83
2023/08/13 14:33:37;;;;;;;9.20;2.30;;;;;;;;;;5051305;28;20037;-83